Time;durP1;ratioP1;P1;durP2;ratioP2;P2;SDS_P1;SDS_P2;PMS_P1;PMS_P2;Temp;Humidity;BMP_temperature;BMP_pressure;BME280_temperature;BME280_humidity;BME280_pressure;Samples;Min_cycle;Max_cycle;Signal;HPM_P1;HPM_P2
2023/06/05 00:00:07;;;;;;;1.40;0.70;;;;;;;15.05;41.85;100035.55;82205;1292;3011435;-61
2023/06/05 00:02:40;;;;;;;0.80;0.50;;;;;;;15.02;41.84;100033.28;80954;1292;3049452;-61
2023/06/05 00:05:08;;;;;;;0.80;0.60;;;;;;;15.00;41.83;100030.81;82221;1292;3012591;-63
2023/06/05 00:07:39;;;;;;;0.70;0.60;;;;;;;14.96;41.59;100034.92;81687;1292;3011292;-60
2023/06/05 00:10:06;;;;;;;2.70;0.90;;;;;;;14.93;41.51;100033.36;82216;1295;3013275;-64
2023/06/05 00:12:34;;;;;;;0.80;0.50;;;;;;;14.91;41.55;100032.29;82213;1291;3011333;-60
2023/06/05 00:15:04;;;;;;;1.10;0.60;;;;;;;14.90;41.30;100031.69;80922;1292;3050059;-62
2023/06/05 00:17:31;;;;;;;2.00;0.90;;;;;;;14.88;41.37;100033.42;82201;1292;3012749;-61
2023/06/05 00:19:58;;;;;;;1.40;0.60;;;;;;;14.86;41.43;100036.39;82158;1294;3011380;-63
2023/06/05 00:22:27;;;;;;;3.70;0.70;;;;;;;14.76;41.76;100036.30;80868;1294;3050648;-63
2023/06/05 00:24:54;;;;;;;4.00;0.70;;;;;;;14.76;41.85;100035.98;82064;1294;3011332;-64
2023/06/05 00:27:21;;;;;;;1.00;0.80;;;;;;;14.79;41.62;100027.15;82119;1293;3011425;-61
2023/06/05 00:29:49;;;;;;;1.80;0.90;;;;;;;14.73;41.98;100030.52;80868;1294;3050770;-63
2023/06/05 00:32:15;;;;;;;2.70;0.90;;;;;;;14.72;41.95;100031.30;82113;1293;3012823;-62
2023/06/05 00:34:42;;;;;;;1.90;0.80;;;;;;;14.71;41.90;100032.65;82063;1294;3011092;-61
2023/06/05 00:37:11;;;;;;;2.00;0.80;;;;;;;14.71;42.03;100031.94;80816;1294;3026808;-61
2023/06/05 00:39:38;;;;;;;2.00;0.90;;;;;;;14.68;42.27;100027.89;82136;1294;3011420;-63
2023/06/05 00:42:06;;;;;;;1.60;0.90;;;;;;;14.67;42.35;100025.67;82104;1294;3011354;-62
2023/06/05 00:44:35;;;;;;;1.90;0.80;;;;;;;14.64;42.42;100028.54;80759;1294;3049215;-61
2023/06/05 00:47:01;;;;;;;3.30;0.60;;;;;;;14.61;42.71;100028.33;82104;1294;3012747;-63
2023/06/05 00:49:29;;;;;;;2.30;0.90;;;;;;;14.65;42.58;100026.87;82025;1294;3011231;-62
2023/06/05 00:51:57;;;;;;;1.80;0.70;;;;;;;14.64;42.48;100028.86;80738;1295;3049391;-62
2023/06/05 00:54:23;;;;;;;2.10;0.90;;;;;;;14.65;42.54;100026.84;82088;1294;3012734;-62
2023/06/05 00:56:52;;;;;;;3.30;1.00;;;;;;;14.62;42.55;100021.73;82065;1295;3011255;-62
2023/06/05 00:59:20;;;;;;;3.90;1.00;;;;;;;14.60;42.72;100020.63;80742;1293;3051677;-63
2023/06/05 01:01:47;;;;;;;0.90;0.60;;;;;;;14.57;43.05;100026.14;82115;1293;3012808;-62
2023/06/05 01:04:14;;;;;;;6.00;0.90;;;;;;;14.57;43.19;100028.04;82072;1294;3011214;-62
2023/06/05 01:06:43;;;;;;;1.40;0.60;;;;;;;14.54;43.08;100028.29;80819;1294;3048245;-61
2023/06/05 01:09:10;;;;;;;1.30;0.70;;;;;;;14.49;43.25;100027.19;82106;1297;3012533;-62
2023/06/05 01:12:05;;;;;;;3.30;0.80;;;;;;;14.49;43.51;100025.77;81993;1294;3011337;-62
2023/06/05 01:14:34;;;;;;;1.50;0.60;;;;;;;14.47;43.47;100018.85;80874;1294;3052718;-62
2023/06/05 01:17:02;;;;;;;2.20;0.90;;;;;;;14.42;43.74;100022.03;82084;1294;3011397;-62
2023/06/05 01:19:32;;;;;;;1.50;1.00;;;;;;;14.41;43.96;100022.98;81666;1292;3011539;-61
2023/06/05 01:21:59;;;;;;;3.10;0.70;;;;;;;14.33;44.24;100019.83;82190;1292;3011459;-63
2023/06/05 01:24:27;;;;;;;2.90;0.90;;;;;;;14.28;44.28;100019.79;82203;1292;3011181;-61
2023/06/05 01:26:56;;;;;;;1.50;0.90;;;;;;;14.23;44.58;100021.76;80967;1292;3052685;-62
2023/06/05 01:29:26;;;;;;;7.70;0.80;;;;;;;14.21;44.75;100025.05;82205;1292;3011227;-63
2023/06/05 01:31:56;;;;;;;1.50;0.80;;;;;;;14.17;44.97;100027.74;80876;1292;3026282;-62
2023/06/05 01:34:24;;;;;;;1.10;0.80;;;;;;;14.15;45.02;100028.23;82112;1292;3012992;-62
2023/06/05 01:36:53;;;;;;;2.30;0.80;;;;;;;14.15;45.13;100031.94;81624;1292;3011136;-64
2023/06/05 01:39:19;;;;;;;4.10;0.90;;;;;;;14.12;45.33;100028.29;82216;1292;3012697;-62
2023/06/05 01:41:46;;;;;;;2.10;0.90;;;;;;;14.10;45.57;100024.18;82117;1292;3011441;-62
2023/06/05 01:44:15;;;;;;;2.80;0.90;;;;;;;14.07;45.53;100025.56;80819;1295;3025822;-63
2023/06/05 01:46:42;;;;;;;1.10;0.70;;;;;;;14.06;45.69;100024.23;82182;1294;3013047;-63
2023/06/05 01:49:09;;;;;;;2.30;0.80;;;;;;;14.00;45.60;100023.06;82225;1292;3011112;-62
2023/06/05 01:51:37;;;;;;;1.80;0.70;;;;;;;13.97;45.84;100021.14;80882;1292;3047243;-61
2023/06/05 01:54:05;;;;;;;2.30;0.80;;;;;;;14.02;45.58;100023.84;82212;1292;3011391;-61
2023/06/05 01:56:32;;;;;;;0.80;0.60;;;;;;;13.99;45.64;100024.38;82206;1292;3011486;-60
2023/06/05 01:59:06;;;;;;;1.50;0.70;;;;;;;13.99;45.52;100020.85;80883;1295;3053540;-61
2023/06/05 02:01:36;;;;;;;3.00;0.70;;;;;;;13.97;45.68;100023.05;81595;1294;3011330;-61
2023/06/05 02:04:05;;;;;;;1.30;0.80;;;;;;;13.98;45.29;100027.80;82190;1294;3018073;-61
2023/06/05 02:06:41;;;;;;;1.60;0.70;;;;;;;13.97;45.57;100021.34;82213;1292;3011296;-62
2023/06/05 02:09:12;;;;;;;2.10;0.90;;;;;;;14.02;45.29;100025.77;80915;1292;3049447;-62
2023/06/05 02:11:39;;;;;;;3.80;0.90;;;;;;;14.08;45.39;100029.39;82158;1292;3011474;-61
2023/06/05 02:14:08;;;;;;;3.00;0.90;;;;;;;14.17;44.99;100030.43;81665;1292;3011474;-62
2023/06/05 02:16:37;;;;;;;1.70;0.80;;;;;;;14.20;45.02;100033.36;82181;1292;3011343;-61
2023/06/05 02:19:06;;;;;;;1.30;0.70;;;;;;;14.22;45.00;100034.33;81620;1292;3011217;-60
2023/06/05 02:21:33;;;;;;;2.20;0.70;;;;;;;14.21;45.16;100039.33;82094;1293;3017903;-61
2023/06/05 02:24:00;;;;;;;2.80;0.70;;;;;;;14.22;45.19;100041.55;82129;1293;3011161;-60
2023/06/05 02:26:27;;;;;;;3.10;0.90;;;;;;;14.21;45.43;100046.36;80760;1295;3026575;-60
2023/06/05 02:28:56;;;;;;;1.90;0.80;;;;;;;14.24;44.93;100040.84;82108;1294;3013050;-63
2023/06/05 02:31:28;;;;;;;2.80;0.80;;;;;;;14.21;44.95;100042.46;81592;1294;3011195;-62
2023/06/05 02:33:59;;;;;;;1.40;0.80;;;;;;;14.19;45.58;100039.41;82046;1294;3011154;-62
2023/06/05 02:36:26;;;;;;;2.30;0.60;;;;;;;14.18;45.47;100042.83;80858;1297;3053230;-62
2023/06/05 02:38:53;;;;;;;1.50;0.80;;;;;;;14.20;45.40;100039.16;82022;1294;3012843;-62
2023/06/05 02:41:23;;;;;;;4.40;0.90;;;;;;;14.23;45.60;100035.29;82011;1293;3011244;-60
2023/06/05 02:43:51;;;;;;;1.10;0.60;;;;;;;14.24;45.35;100039.09;80871;1294;3048844;-61
2023/06/05 02:46:18;;;;;;;1.90;0.80;;;;;;;14.28;45.38;100037.26;82016;1294;3011347;-62
2023/06/05 02:48:45;;;;;;;4.80;0.70;;;;;;;14.31;45.49;100035.80;82018;1294;3011123;-63
2023/06/05 02:51:13;;;;;;;1.60;0.70;;;;;;;14.32;45.49;100038.21;80849;1294;3051702;-60
2023/06/05 02:53:40;;;;;;;4.50;0.70;;;;;;;14.36;44.79;100035.48;82035;1294;3013243;-63
2023/06/05 02:56:07;;;;;;;2.10;0.80;;;;;;;14.41;44.81;100036.02;82003;1294;3011466;-62
2023/06/05 02:58:35;;;;;;;2.80;0.70;;;;;;;14.44;44.28;100042.38;80788;1293;3049175;-62
2023/06/05 03:01:02;;;;;;;2.70;0.70;;;;;;;14.46;44.40;100042.23;82073;1294;3012513;-60
2023/06/05 03:03:35;;;;;;;4.30;0.70;;;;;;;14.47;44.28;100042.86;80780;1294;3051801;-62
2023/06/05 03:06:04;;;;;;;1.30;0.60;;;;;;;14.50;44.42;100041.27;82023;1298;3018113;-62
2023/06/05 03:08:34;;;;;;;1.90;0.90;;;;;;;14.54;44.56;100040.42;80743;1293;3050569;-62
2023/06/05 03:11:04;;;;;;;2.30;0.90;;;;;;;14.54;44.57;100037.96;82009;1294;3012212;-62
2023/06/05 03:13:32;;;;;;;3.60;0.90;;;;;;;14.60;44.22;100034.73;80726;1294;3052463;-63
2023/06/05 03:16:03;;;;;;;1.40;0.90;;;;;;;14.65;44.23;100037.13;82039;1294;3012708;-60
2023/06/05 03:18:32;;;;;;;9.10;1.20;;;;;;;14.69;44.10;100032.39;80811;1294;3051944;-61
2023/06/05 03:21:00;;;;;;;3.00;0.70;;;;;;;14.72;44.30;100036.26;82220;1292;3012512;-61
2023/06/05 03:23:28;;;;;;;3.50;0.70;;;;;;;14.73;44.34;100031.25;82160;1292;3011124;-62
2023/06/05 03:25:56;;;;;;;1.70;0.90;;;;;;;14.73;44.41;100032.67;80919;1292;3048478;-62
2023/06/05 03:28:24;;;;;;;4.30;1.00;;;;;;;14.82;43.78;100038.05;82165;1292;3011065;-60
2023/06/05 03:30:51;;;;;;;1.40;0.80;;;;;;;14.87;43.32;100038.42;82158;1292;3011502;-61
2023/06/05 03:33:20;;;;;;;10.10;1.00;;;;;;;14.87;43.87;100033.80;80988;1292;3053637;-61
2023/06/05 03:35:48;;;;;;;1.90;0.80;;;;;;;14.88;43.72;100036.73;82177;1295;3012674;-61
2023/06/05 03:38:15;;;;;;;1.90;0.80;;;;;;;14.95;43.63;100039.77;82144;1292;3011405;-61
2023/06/05 03:40:43;;;;;;;2.80;1.20;;;;;;;14.99;43.77;100037.40;80761;1294;3048238;-61
2023/06/05 03:43:11;;;;;;;4.20;1.20;;;;;;;15.03;43.40;100035.48;82026;1293;3012758;-61
2023/06/05 03:45:42;;;;;;;1.80;0.90;;;;;;;15.06;43.25;100029.98;82003;1294;3011638;-63
2023/06/05 03:48:11;;;;;;;1.30;0.80;;;;;;;15.06;43.15;100036.39;80666;1296;3053185;-61
2023/06/05 03:50:41;;;;;;;3.00;0.80;;;;;;;15.10;43.11;100036.09;81988;1295;3011365;-59
2023/06/05 03:53:10;;;;;;;1.70;1.00;;;;;;;15.17;42.95;100034.39;80855;1294;3026059;-61
2023/06/05 03:55:41;;;;;;;4.90;0.90;;;;;;;15.23;42.78;100035.34;82049;1294;3010888;-61
2023/06/05 03:58:14;;;;;;;3.50;1.20;;;;;;;15.24;42.92;100041.28;80797;1293;3049113;-62
2023/06/05 04:00:45;;;;;;;2.10;1.30;;;;;;;15.33;42.85;100043.11;82049;1294;3011493;-61
2023/06/05 04:03:12;;;;;;;2.10;1.10;;;;;;;15.34;42.76;100041.45;80719;1299;3050141;-63
2023/06/05 04:05:39;;;;;;;2.80;1.20;;;;;;;15.32;42.64;100042.52;82073;1294;3012643;-64
2023/06/05 04:08:09;;;;;;;5.40;1.20;;;;;;;15.40;42.74;100039.27;81979;1293;3011270;-62
2023/06/05 04:10:38;;;;;;;4.50;1.30;;;;;;;15.46;42.49;100043.56;80825;1294;3050544;-63
2023/06/05 04:13:05;;;;;;;2.50;1.40;;;;;;;15.50;42.24;100040.16;82045;1293;3012706;-61
2023/06/05 04:15:37;;;;;;;2.70;1.00;;;;;;;15.53;42.39;100045.59;81410;1294;3011322;-63
2023/06/05 04:18:04;;;;;;;5.50;1.40;;;;;;;15.59;42.26;100043.58;82010;1293;3012815;-62
2023/06/05 04:20:30;;;;;;;2.00;1.20;;;;;;;15.60;42.34;100043.30;82110;1294;3011532;-62
2023/06/05 04:22:58;;;;;;;6.20;1.50;;;;;;;15.67;42.52;100045.09;80774;1294;3051573;-61
2023/06/05 04:25:28;;;;;;;3.90;1.70;;;;;;;15.72;42.42;100044.89;81994;1294;3011397;-61
2023/06/05 04:27:58;;;;;;;5.00;1.70;;;;;;;15.77;42.83;100044.57;81542;1294;3011591;-62
2023/06/05 04:30:25;;;;;;;4.00;1.70;;;;;;;15.81;43.01;100051.70;82018;1293;3012779;-62
2023/06/05 04:32:54;;;;;;;4.20;1.60;;;;;;;15.89;43.00;100050.39;82045;1294;3011046;-61
2023/06/05 04:35:23;;;;;;;4.20;1.80;;;;;;;15.97;42.92;100046.85;80744;1294;3049594;-62
2023/06/05 04:37:50;;;;;;;4.10;2.50;;;;;;;16.01;43.14;100047.21;82097;1294;3018424;-63
2023/06/05 04:40:18;;;;;;;4.50;2.40;;;;;;;16.09;42.91;100042.63;82034;1293;3011490;-61
2023/06/05 04:42:46;;;;;;;4.80;2.00;;;;;;;16.20;42.74;100041.63;80747;1294;3051969;-62
2023/06/05 04:45:13;;;;;;;7.40;2.10;;;;;;;16.25;42.26;100044.22;82022;1294;3013178;-63
2023/06/05 04:47:44;;;;;;;4.00;1.80;;;;;;;16.29;41.92;100044.31;80732;1294;3051707;-63
2023/06/05 04:50:21;;;;;;;3.10;1.60;;;;;;;16.36;41.67;100042.16;82060;1294;3010873;-64
2023/06/05 04:52:50;;;;;;;2.90;1.60;;;;;;;16.38;41.64;100042.05;80728;1294;3052319;-62
2023/06/05 04:55:17;;;;;;;3.00;1.80;;;;;;;16.38;41.65;100041.86;82023;1294;3012738;-62
2023/06/05 04:57:44;;;;;;;4.60;1.80;;;;;;;16.40;41.76;100047.72;82016;1294;3011339;-60
2023/06/05 05:00:13;;;;;;;3.20;1.70;;;;;;;16.41;42.00;100052.40;80736;1294;3048549;-63
2023/06/05 05:02:40;;;;;;;4.60;2.40;;;;;;;16.54;41.90;100057.27;82066;1294;3012867;-63
2023/06/05 05:05:07;;;;;;;5.40;2.10;;;;;;;16.57;42.08;100054.86;82011;1294;3011415;-63
2023/06/05 05:07:35;;;;;;;5.50;2.30;;;;;;;16.58;42.21;100057.61;80783;1294;3051629;-64
2023/06/05 05:10:02;;;;;;;5.00;2.00;;;;;;;16.69;42.25;100056.13;81930;1297;3012902;-62
2023/06/05 05:12:30;;;;;;;6.30;2.20;;;;;;;16.79;41.69;100056.38;81990;1294;3011433;-62
2023/06/05 05:14:58;;;;;;;4.10;1.60;;;;;;;16.86;41.51;100057.77;80806;1293;3048971;-61
2023/06/05 05:17:25;;;;;;;5.30;2.20;;;;;;;16.94;41.31;100059.52;82041;1296;3011373;-63
2023/06/05 05:19:52;;;;;;;5.20;1.90;;;;;;;17.01;41.14;100061.45;81983;1293;3011241;-63
2023/06/05 05:22:20;;;;;;;9.30;2.40;;;;;;;17.06;41.22;100061.95;80793;1295;3051872;-64
2023/06/05 05:24:46;;;;;;;4.40;2.40;;;;;;;17.09;41.12;100062.79;81981;1294;3012513;-63
2023/06/05 05:27:13;;;;;;;5.50;2.10;;;;;;;17.13;41.42;100065.50;82011;1293;3011432;-61
2023/06/05 05:29:41;;;;;;;5.40;2.00;;;;;;;17.17;41.02;100062.68;80764;1294;3026495;-63
2023/06/05 05:32:07;;;;;;;3.30;2.00;;;;;;;17.23;40.59;100064.53;82058;1293;3012346;-62
2023/06/05 05:34:35;;;;;;;3.40;1.80;;;;;;;17.29;40.07;100062.64;81981;1294;3011287;-64
2023/06/05 05:37:03;;;;;;;3.30;2.20;;;;;;;17.30;40.61;100069.10;80835;1294;3051874;-62
2023/06/05 05:39:30;;;;;;;8.60;2.00;;;;;;;17.34;40.51;100067.38;82018;1294;3013244;-62
2023/06/05 05:41:58;;;;;;;8.80;2.50;;;;;;;17.40;40.78;100071.67;82030;1293;3011435;-61
2023/06/05 05:44:26;;;;;;;4.00;2.20;;;;;;;17.48;40.36;100072.95;80821;1293;3049369;-62
2023/06/05 05:46:52;;;;;;;7.10;2.70;;;;;;;17.47;40.04;100074.87;82089;1294;3013057;-62
2023/06/05 05:49:19;;;;;;;6.50;2.40;;;;;;;17.52;40.20;100069.30;82024;1294;3011202;-62
2023/06/05 05:51:46;;;;;;;7.60;3.10;;;;;;;17.63;40.14;100067.23;80751;1294;3026231;-62
2023/06/05 05:54:13;;;;;;;7.50;3.40;;;;;;;17.67;39.80;100062.30;82127;1294;3013736;-66
2023/06/05 05:56:42;;;;;;;8.30;3.30;;;;;;;17.73;39.38;100059.17;82094;1293;3011349;-65
2023/06/05 05:59:09;;;;;;;6.10;2.80;;;;;;;17.80;39.47;100059.27;80777;1294;3047287;-61
2023/06/05 06:01:36;;;;;;;4.40;2.20;;;;;;;17.88;39.10;100059.45;82078;1294;3018388;-63
2023/06/05 06:04:03;;;;;;;5.30;2.00;;;;;;;17.96;38.21;100059.23;82080;1294;3011050;-63
2023/06/05 06:06:31;;;;;;;5.10;1.80;;;;;;;17.98;37.86;100057.12;80813;1294;3026087;-63
2023/06/05 06:08:57;;;;;;;5.30;1.90;;;;;;;18.08;37.55;100058.83;82037;1294;3013355;-64
2023/06/05 06:11:27;;;;;;;6.70;1.90;;;;;;;18.13;37.39;100059.06;82077;1293;3011468;-62
2023/06/05 06:13:55;;;;;;;6.90;2.20;;;;;;;18.15;37.32;100058.40;80850;1293;3049005;-65
2023/06/05 06:16:22;;;;;;;7.20;2.50;;;;;;;18.25;37.04;100063.23;82144;1293;3012876;-63
2023/06/05 06:18:48;;;;;;;4.40;1.70;;;;;;;18.31;36.70;100057.59;82104;1294;3011202;-63
2023/06/05 06:21:16;;;;;;;5.10;2.40;;;;;;;18.44;36.25;100062.34;80872;1294;3027474;-62
2023/06/05 06:23:44;;;;;;;4.00;2.30;;;;;;;18.49;36.07;100066.39;82101;1293;3013161;-63
2023/06/05 06:26:11;;;;;;;6.60;2.50;;;;;;;18.53;35.26;100063.54;82082;1294;3011312;-61
2023/06/05 06:28:39;;;;;;;6.40;2.30;;;;;;;18.50;35.01;100066.11;80775;1297;3048261;-62
2023/06/05 06:31:06;;;;;;;5.30;2.10;;;;;;;18.56;35.00;100064.36;82068;1294;3012820;-62
2023/06/05 06:33:33;;;;;;;4.20;2.00;;;;;;;18.69;34.69;100064.72;82068;1294;3011299;-64
2023/06/05 06:36:01;;;;;;;5.60;1.90;;;;;;;18.72;34.44;100060.39;80759;1297;3026375;-64
2023/06/05 06:38:30;;;;;;;7.50;1.90;;;;;;;18.77;33.41;100061.54;82043;1294;3018403;-63
2023/06/05 06:40:57;;;;;;;2.50;1.40;;;;;;;18.77;32.35;100057.81;82018;1294;3011610;-63
2023/06/05 06:43:25;;;;;;;6.60;1.80;;;;;;;18.69;32.33;100057.62;80769;1294;3048642;-61
2023/06/05 06:46:01;;;;;;;6.80;1.90;;;;;;;18.83;32.70;100053.23;81487;1294;3011295;-64
2023/06/05 06:48:28;;;;;;;7.00;1.80;;;;;;;18.93;32.67;100056.85;82058;1294;3013224;-62
2023/06/05 06:50:54;;;;;;;5.80;1.80;;;;;;;19.02;32.87;100060.71;82035;1297;3011388;-62
2023/06/05 06:53:22;;;;;;;5.10;1.90;;;;;;;19.01;33.05;100063.81;80819;1294;3051671;-61
2023/06/05 06:59:41;;;;;;;8.50;2.20;;;;;;;18.91;33.65;100062.27;79738;1307;3012861;-63
2023/06/05 07:02:13;;;;;;;8.10;2.20;;;;;;;18.98;33.82;100064.41;78843;1308;3013424;-62
2023/06/05 07:04:42;;;;;;;4.80;2.60;;;;;;;19.05;33.74;100067.52;77605;1317;3053013;-63
2023/06/05 07:07:10;;;;;;;7.60;2.50;;;;;;;19.12;34.11;100063.35;79135;1305;3013469;-61
2023/06/05 07:09:44;;;;;;;13.90;2.40;;;;;;;19.21;34.10;100059.90;78562;1299;3011875;-63
2023/06/05 07:12:13;;;;;;;7.30;2.50;;;;;;;19.26;33.57;100061.81;77281;1303;5630631;-62
2023/06/05 07:14:40;;;;;;;5.60;2.20;;;;;;;19.22;32.52;100053.59;78068;1300;3056982;-63
2023/06/05 07:17:07;;;;;;;5.10;2.30;;;;;;;19.14;32.82;100053.05;79175;1297;3013481;-63
2023/06/05 07:19:36;;;;;;;6.40;2.20;;;;;;;18.93;32.72;100060.91;79169;1298;3011500;-64
2023/06/05 07:22:04;;;;;;;5.40;1.70;;;;;;;19.10;32.63;100061.37;78104;1301;3052067;-61
2023/06/05 07:24:31;;;;;;;6.90;1.30;;;;;;;19.20;32.52;100058.40;79315;1299;3013336;-63
2023/06/05 07:27:02;;;;;;;7.70;1.40;;;;;;;19.31;31.79;100060.05;79244;1301;3013522;-61
2023/06/05 07:29:30;;;;;;;4.80;1.40;;;;;;;19.33;31.80;100058.89;78034;1301;3057131;-63
2023/06/05 07:31:58;;;;;;;2.80;1.30;;;;;;;19.43;32.12;100056.91;79274;1300;3013741;-61
2023/06/05 07:34:25;;;;;;;4.20;1.20;;;;;;;19.56;32.56;100059.52;79373;1300;3011759;-63
2023/06/05 07:36:53;;;;;;;3.60;1.20;;;;;;;19.64;32.67;100056.31;78025;1299;3051950;-63
2023/06/05 07:39:20;;;;;;;3.70;1.20;;;;;;;19.75;32.73;100059.63;79419;1300;3019959;-64
2023/06/05 07:41:46;;;;;;;3.40;1.30;;;;;;;19.84;32.93;100048.33;79287;1297;3011842;-64
2023/06/05 07:44:15;;;;;;;4.50;1.70;;;;;;;19.89;33.41;100048.25;78024;1301;3028670;-61
2023/06/05 07:46:42;;;;;;;6.40;1.20;;;;;;;20.06;33.16;100047.58;79292;1296;3013677;-63
2023/06/05 07:49:09;;;;;;;4.90;1.30;;;;;;;20.17;32.82;100042.54;79196;1297;3011666;-63
2023/06/05 07:51:37;;;;;;;4.80;1.60;;;;;;;20.01;32.58;100046.28;77990;1303;3053192;-62
2023/06/05 07:54:08;;;;;;;4.60;1.20;;;;;;;19.99;32.55;100042.39;79346;1297;3013609;-65
2023/06/05 07:56:38;;;;;;;5.10;1.50;;;;;;;19.89;32.70;100037.77;78060;1301;3052578;-63
2023/06/05 07:59:05;;;;;;;2.20;1.40;;;;;;;19.77;32.94;100032.05;79361;1297;3013799;-63
2023/06/05 08:01:36;;;;;;;4.90;1.20;;;;;;;19.97;32.74;100044.35;78853;1300;3011675;-63
2023/06/05 08:04:04;;;;;;;2.50;0.90;;;;;;;20.07;32.27;100042.33;79538;1296;3012515;-62
2023/06/05 08:06:31;;;;;;;4.10;1.20;;;;;;;20.19;32.19;100038.21;79410;1298;3011685;-61
2023/06/05 08:08:59;;;;;;;2.80;1.00;;;;;;;20.10;31.59;100040.70;78233;1298;3052694;-63
2023/06/05 08:11:26;;;;;;;1.80;0.80;;;;;;;20.06;31.49;100038.54;79185;1301;3013585;-63
2023/06/05 08:13:54;;;;;;;1.60;0.80;;;;;;;20.24;31.26;100040.77;79191;1301;3013561;-63
2023/06/05 08:16:22;;;;;;;1.60;0.80;;;;;;;20.26;30.97;100039.88;78028;1296;3049561;-62
2023/06/05 08:18:48;;;;;;;1.10;0.80;;;;;;;20.38;31.42;100041.30;79214;1300;3013296;-61
2023/06/05 08:21:16;;;;;;;1.50;0.80;;;;;;;20.52;30.92;100035.36;79313;1297;3012154;-62
2023/06/05 08:23:44;;;;;;;1.60;0.60;;;;;;;20.57;30.12;100041.96;78021;1300;3052841;-61
2023/06/05 08:26:11;;;;;;;2.20;0.90;;;;;;;20.41;29.74;100040.67;79367;1299;3018743;-61
2023/06/05 08:28:42;;;;;;;1.30;0.60;;;;;;;20.34;30.08;100035.61;79243;1296;3011436;-61
2023/06/05 08:33:49;;;;;;;2.10;0.80;;;;;;;20.74;30.06;100033.00;80015;1299;3011445;-62
2023/06/05 08:36:16;;;;;;;3.10;0.90;;;;;;;20.88;29.67;100036.52;79240;1299;3013420;-63
2023/06/05 08:38:43;;;;;;;2.10;0.70;;;;;;;21.04;28.60;100037.63;78919;1302;3012848;-62
2023/06/05 08:41:13;;;;;;;1.50;0.80;;;;;;;21.00;28.56;100039.58;78044;1302;3052407;-62
2023/06/05 08:43:41;;;;;;;2.20;0.90;;;;;;;20.81;28.65;100035.15;79094;1305;3013538;-62
2023/06/05 08:46:11;;;;;;;1.90;0.80;;;;;;;20.90;28.81;100028.63;77000;1301;3013087;-63
2023/06/05 08:48:46;;;;;;;1.80;0.80;;;;;;;21.01;28.97;100025.30;79414;1298;3011536;-61
2023/06/05 08:51:15;;;;;;;4.20;1.00;;;;;;;21.13;28.72;100023.79;77993;1305;3049929;-64
2023/06/05 08:53:45;;;;;;;1.60;0.80;;;;;;;21.18;28.30;100029.69;79259;1298;3011583;-63
2023/06/05 08:56:13;;;;;;;1.10;0.70;;;;;;;21.25;27.90;100028.64;78008;1305;3049667;-61
2023/06/05 08:58:40;;;;;;;2.70;0.80;;;;;;;21.18;28.03;100036.50;79231;1304;3013496;-63
2023/06/05 09:01:06;;;;;;;2.40;1.00;;;;;;;21.21;27.64;100032.66;79295;1299;3011735;-63
2023/06/05 09:03:34;;;;;;;2.60;0.90;;;;;;;20.94;27.93;100028.19;77980;1301;3026082;-64
2023/06/05 09:06:03;;;;;;;1.90;0.80;;;;;;;20.89;28.74;100030.48;79319;1299;3020514;-62
2023/06/05 09:08:32;;;;;;;1.30;0.80;;;;;;;21.12;28.22;100032.20;79351;1299;3011436;-63
2023/06/05 09:11:23;;;;;;;1.80;0.80;;;;;;;21.25;27.61;100026.56;78047;1311;3050109;-63
2023/06/05 09:13:51;;;;;;;2.30;0.70;;;;;;;21.16;27.89;100036.14;78416;1309;3053531;-62
2023/06/05 09:16:19;;;;;;;2.00;0.90;;;;;;;21.16;27.96;100033.27;79553;1301;3012955;-63
2023/06/05 09:18:56;;;;;;;5.20;0.90;;;;;;;20.91;27.49;100033.02;79301;1298;3013387;-63
2023/06/05 09:21:32;;;;;;;1.90;0.90;;;;;;;20.68;28.14;100031.77;78122;1300;3056310;-63
2023/06/05 09:24:09;;;;;;;1.90;0.90;;;;;;;20.84;28.39;100032.38;78068;1301;3049549;-63
2023/06/05 09:27:11;;;;;;;2.40;1.30;;;;;;;20.50;28.67;100030.54;78077;1301;3053352;-61
2023/06/05 09:29:40;;;;;;;1.40;0.80;;;;;;;20.24;28.97;100021.77;78025;1301;3050334;-64
2023/06/05 09:32:08;;;;;;;1.20;0.70;;;;;;;20.49;29.42;100015.87;79435;1297;3013194;-64
2023/06/05 09:34:35;;;;;;;1.10;0.90;;;;;;;20.54;29.38;100016.70;79215;1301;3011490;-64
2023/06/05 09:37:05;;;;;;;7.30;0.90;;;;;;;20.90;28.96;100013.67;78080;1302;3051162;-62
2023/06/05 09:39:39;;;;;;;1.50;0.70;;;;;;;20.87;28.37;100024.44;79351;1301;3011650;-62
2023/06/05 09:42:07;;;;;;;1.50;0.80;;;;;;;20.78;28.18;100011.42;78023;1309;3048553;-64
2023/06/05 09:44:36;;;;;;;1.10;0.70;;;;;;;21.05;28.48;100007.09;79609;1298;3013982;-62
2023/06/05 09:47:07;;;;;;;2.80;1.00;;;;;;;21.24;28.70;100006.32;78704;1301;3011834;-63
2023/06/05 09:49:42;;;;;;;1.50;0.90;;;;;;;21.30;28.98;100008.45;79396;1302;3011619;-64
2023/06/05 09:52:12;;;;;;;3.40;0.90;;;;;;;20.92;29.06;100010.80;78104;1300;3053255;-64
2023/06/05 09:54:41;;;;;;;3.20;0.80;;;;;;;21.15;28.73;100007.91;79392;1301;3013490;-63
2023/06/05 09:57:11;;;;;;;1.20;0.60;;;;;;;21.41;28.08;100010.94;78166;1301;3057839;-62
2023/06/05 09:59:53;;;;;;;4.10;0.90;;;;;;;21.68;27.78;100002.94;79329;1299;3011833;-63
2023/06/05 10:02:23;;;;;;;2.20;0.80;;;;;;;22.03;27.97;99996.96;78049;1299;3053715;-63
2023/06/05 10:05:01;;;;;;;3.60;1.10;;;;;;;22.13;27.60;99991.90;79307;1301;3013250;-62
2023/06/05 10:07:32;;;;;;;1.30;1.00;;;;;;;22.39;27.78;99990.03;78075;1298;3052979;-62
2023/06/05 10:09:59;;;;;;;6.30;1.20;;;;;;;22.53;27.69;99997.35;79380;1300;3011845;-62
2023/06/05 10:12:30;;;;;;;1.50;0.80;;;;;;;22.22;27.18;99993.98;78732;1296;3013989;-63
2023/06/05 10:14:57;;;;;;;1.30;0.80;;;;;;;22.31;27.71;99990.50;79280;1296;3011854;-65
2023/06/05 10:17:26;;;;;;;1.60;0.90;;;;;;;22.49;27.81;99992.23;79097;1299;3011626;-62
2023/06/05 10:19:53;;;;;;;2.30;0.90;;;;;;;22.57;27.56;99985.84;79213;1304;3012782;-63
2023/06/05 11:14:53;;;;;;;2.50;0.80;;;;;;;22.86;25.87;99957.66;78324;1298;3049857;-65
2023/06/05 11:17:33;;;;;;;0.90;0.80;;;;;;;23.08;25.86;99953.27;79236;1301;3011924;-65
2023/06/05 11:20:12;;;;;;;1.40;0.80;;;;;;;23.10;24.80;99952.35;78196;1298;3057325;-66
2023/06/05 11:22:53;;;;;;;2.30;0.80;;;;;;;23.10;24.84;99950.02;78298;1301;3049661;-65
2023/06/05 11:25:38;;;;;;;4.40;1.20;;;;;;;22.95;25.29;99945.54;78195;1299;3053384;-66
2023/06/05 11:28:39;;;;;;;2.10;0.70;;;;;;;23.12;25.38;99952.28;78251;1299;3050034;-65
2023/06/05 11:31:08;;;;;;;2.90;0.90;;;;;;;23.47;24.76;99948.75;78353;1301;3053365;-65
2023/06/05 11:33:36;;;;;;;2.00;1.00;;;;;;;23.71;24.59;99942.23;79549;1300;3013655;-65
2023/06/05 11:36:07;;;;;;;6.50;1.40;;;;;;;23.95;24.43;99941.48;79550;1299;3013048;-66
2023/06/05 11:38:35;;;;;;;4.40;0.80;;;;;;;24.00;24.24;99940.72;78183;1297;3056186;-67
2023/06/05 11:41:06;;;;;;;3.10;0.60;;;;;;;24.17;23.85;99940.10;79401;1301;3013206;-64
2023/06/05 11:43:41;;;;;;;1.70;0.70;;;;;;;24.17;23.66;99945.23;78277;1299;3049369;-66
2023/06/05 11:46:11;;;;;;;4.40;0.90;;;;;;;24.16;23.70;99933.29;78853;1301;3011501;-67
2023/06/05 11:48:43;;;;;;;3.40;0.90;;;;;;;24.54;23.45;99931.17;79344;1301;3013656;-65
2023/06/05 11:51:10;;;;;;;1.40;0.90;;;;;;;24.83;23.17;99930.36;78196;1298;3069493;-67
2023/06/05 11:53:43;;;;;;;4.30;0.70;;;;;;;24.56;23.56;99932.85;79394;1301;3013690;-65
2023/06/05 11:56:13;;;;;;;1.20;0.70;;;;;;;24.48;23.48;99927.12;77994;1301;3049535;-65
2023/06/05 11:58:40;;;;;;;1.70;0.80;;;;;;;24.97;23.02;99934.84;79370;1301;3013165;-65
2023/06/05 12:01:23;;;;;;;2.30;0.90;;;;;;;25.25;22.64;99928.77;78916;1298;3012900;-65
2023/06/05 12:04:04;;;;;;;1.40;0.70;;;;;;;25.64;22.38;99927.65;78328;1301;3053543;-66
2023/06/05 12:06:33;;;;;;;3.40;0.90;;;;;;;25.44;22.41;99934.35;78305;1301;3053202;-66
2023/06/05 12:09:13;;;;;;;5.10;0.80;;;;;;;25.18;22.86;99930.58;79299;1298;3013190;-65
2023/06/05 12:11:44;;;;;;;3.30;0.70;;;;;;;24.94;23.35;99935.49;78401;1298;3056761;-65
2023/06/05 12:14:12;;;;;;;2.20;1.00;;;;;;;24.77;23.32;99939.19;79450;1299;3013090;-66
2023/06/05 12:16:45;;;;;;;1.40;0.80;;;;;;;24.81;23.61;99942.00;79577;1298;3014287;-66